KSGS

South St Paul Municipal-Richard E Fleming Field Airport

South St Paul, Minnesota, USA
METAR KSGS 190835Z AUTO 02003KT 10SM OVC007 17/16 A3000 RMK AO2 T01660163
Observed Flight Rules
Sep-19 @ 08:35 UTC (29 minutes ago) Instrument Flight Rules
Wind Visibility Clouds
20° at 3 knots 10 miles
  • Overcast at 700' AGL
Temperatures Readings
Current 17°C / 63°F
Dewpoint 16°C / 61°F
Humidity 94%
Altimeter 30" Hg
Pressure 1016 hPa
Elevation 250
METAR KSGS 190835Z AUTO 02003KT 10SM OVC007 17/16 A3000 RMK AO2 T01660163
Observed Flight Rules
Sep-19 @ 08:35 UTC
(29 minutes ago)
IFR
Wind Visibility
20° at 3 knots 10 miles
Clouds
  • Overcast at 700' AGL
Temperature Dewpoint
17°C / 63°F 16°C / 61°F
Humidity Altimeter Pressure
94% 30" Hg 1016 hPa